createdAt,value
2019-04-21T00:00:00.436Z,16.89
2019-04-21T00:03:10.074Z,16.89
2019-04-21T00:06:29.850Z,16.94
2019-04-21T00:09:40.037Z,16.94
2019-04-21T00:12:40.487Z,16.94
2019-04-21T00:15:36.650Z,16.90
2019-04-21T00:18:51.891Z,16.90
2019-04-21T00:22:01.677Z,16.91
2019-04-21T00:25:16.334Z,16.93
2019-04-21T00:28:32.135Z,16.89
2019-04-21T00:31:24.850Z,16.93
2019-04-21T00:34:15.366Z,16.93
2019-04-21T00:37:30.258Z,16.92
2019-04-21T00:40:52.130Z,16.89
2019-04-21T00:43:44.699Z,16.89
2019-04-21T00:46:51.802Z,16.75
2019-04-21T00:50:05.080Z,16.75
2019-04-21T00:53:22.208Z,16.60
2019-04-21T00:56:22.878Z,16.61
2019-04-21T00:59:34.947Z,16.39
2019-04-21T01:02:43.684Z,16.18
2019-04-21T01:05:42.805Z,15.99
2019-04-21T01:08:42.194Z,15.86
2019-04-21T01:11:52.036Z,15.66
2019-04-21T01:15:06.569Z,15.64
2019-04-21T01:18:01.102Z,15.60
2019-04-21T01:20:46.411Z,15.47
2019-04-21T01:23:50.772Z,15.43
2019-04-21T01:27:04.826Z,15.36
2019-04-21T01:30:22.351Z,15.34
2019-04-21T01:33:34.908Z,15.30
2019-04-21T01:36:29.776Z,15.30
2019-04-21T01:39:44.061Z,15.30
2019-04-21T01:42:48.478Z,15.27
2019-04-21T01:45:49.108Z,15.19
2019-04-21T01:48:54.848Z,15.19
2019-04-21T01:52:08.918Z,15.23
2019-04-21T01:55:13.815Z,15.21
2019-04-21T01:58:15.935Z,15.18
2019-04-21T02:01:29.955Z,15.16
2019-04-21T02:04:39.213Z,15.18
2019-04-21T02:07:40.304Z,15.15
2019-04-21T02:10:46.242Z,15.05
2019-04-21T02:13:57.631Z,15.09
2019-04-21T02:16:59.595Z,15.02
2019-04-21T02:19:56.396Z,15.07
2019-04-21T02:23:23.024Z,15.01
2019-04-21T02:26:16.050Z,15.01
2019-04-21T02:29:20.642Z,14.99
2019-04-21T02:32:43.402Z,14.97
2019-04-21T02:36:22.833Z,14.93
2019-04-21T02:39:06.204Z,14.91
2019-04-21T02:41:54.577Z,14.87
2019-04-21T02:45:03.811Z,14.82
2019-04-21T02:48:22.656Z,14.81
2019-04-21T02:51:13.164Z,14.80
2019-04-21T02:54:40.548Z,14.75
2019-04-21T03:00:32.857Z,14.68
2019-04-21T03:07:13.110Z,14.67
2019-04-21T03:10:18.240Z,14.69
2019-04-21T03:13:33.627Z,14.61
2019-04-21T03:23:05.375Z,14.42
2019-04-21T03:28:53.609Z,14.35
2019-04-21T03:38:14.845Z,14.20
2019-04-21T03:41:26.958Z,14.09
2019-04-21T03:44:28.870Z,14.12
2019-04-21T03:53:40.390Z,13.32
2019-04-21T04:00:00.824Z,13.04
2019-04-21T04:07:05.659Z,12.60
2019-04-21T04:10:03.973Z,12.40
2019-04-21T04:13:05.489Z,12.12
2019-04-21T04:16:10.585Z,11.90
2019-04-21T04:22:36.288Z,11.76
2019-04-21T04:25:43.286Z,11.80
2019-04-21T04:28:49.482Z,11.75
2019-04-21T04:31:45.628Z,11.81
2019-04-21T04:38:03.352Z,11.71
2019-04-21T04:41:28.455Z,11.70
2019-04-21T04:44:39.398Z,11.69
2019-04-21T04:50:55.392Z,11.39
2019-04-21T04:53:43.937Z,11.21
2019-04-21T04:56:56.305Z,11.25
2019-04-21T05:09:33.673Z,11.44
2019-04-21T05:15:41.589Z,11.64
2019-04-21T05:18:56.317Z,11.58
2019-04-21T05:21:44.729Z,11.33
2019-04-21T05:24:50.730Z,11.48
2019-04-21T05:27:54.070Z,11.66
2019-04-21T05:31:25.447Z,11.72
2019-04-21T05:34:36.147Z,11.93
2019-04-21T05:37:47.294Z,12.14
2019-04-21T05:40:45.435Z,12.36
2019-04-21T05:43:56.527Z,12.32
2019-04-21T05:47:16.701Z,12.17
2019-04-21T05:50:14.625Z,12.21
2019-04-21T05:53:26.736Z,12.42
2019-04-21T05:56:30.827Z,12.64
2019-04-21T05:59:35.494Z,12.76
2019-04-21T06:02:38.491Z,12.89
2019-04-21T06:05:51.116Z,13.14
2019-04-21T06:08:49.985Z,13.25
2019-04-21T06:11:57.986Z,13.20
2019-04-21T06:15:22.487Z,13.36
2019-04-21T06:18:13.456Z,13.48
2019-04-21T06:21:18.932Z,13.74
2019-04-21T06:24:20.461Z,13.95
2019-04-21T06:27:35.953Z,14.15
2019-04-21T06:30:46.984Z,14.21
2019-04-21T06:33:45.911Z,14.35
2019-04-21T06:37:07.934Z,14.49
2019-04-21T06:43:29.670Z,14.78
2019-04-21T06:46:26.188Z,14.97
2019-04-21T06:49:27.589Z,14.99
2019-04-21T06:52:46.591Z,15.05
2019-04-21T06:55:36.999Z,15.26
2019-04-21T06:58:42.891Z,15.48
2019-04-21T07:01:50.099Z,15.48
2019-04-21T07:05:03.547Z,15.71
2019-04-21T07:08:21.687Z,16.01
2019-04-21T07:11:14.040Z,16.36
2019-04-21T07:17:24.602Z,16.76
2019-04-21T07:20:28.302Z,17.08
2019-04-21T07:23:43.462Z,17.25
2019-04-21T07:26:45.842Z,17.37
2019-04-21T07:29:49.725Z,17.43
2019-04-21T07:32:56.532Z,17.56
2019-04-21T07:35:55.774Z,17.75
2019-04-21T07:39:01.977Z,17.95
2019-04-21T07:42:04.904Z,18.10
2019-04-21T07:45:13.157Z,18.26
2019-04-21T07:48:29.602Z,18.31
2019-04-21T07:51:56.565Z,18.45
2019-04-21T07:55:12.627Z,18.72
2019-04-21T07:58:02.833Z,18.79
2019-04-21T08:01:14.832Z,18.74
2019-04-21T08:04:38.267Z,18.90
2019-04-21T08:07:37.488Z,19.13
2019-04-21T08:10:26.203Z,19.12
2019-04-21T08:13:40.202Z,19.01
2019-04-21T08:16:44.938Z,18.89
2019-04-21T08:19:46.185Z,18.92
2019-04-21T08:22:51.810Z,19.18
2019-04-21T08:26:06.454Z,19.46
2019-04-21T08:29:15.882Z,19.76
2019-04-21T08:32:14.632Z,19.82
2019-04-21T08:38:20.868Z,20.08
2019-04-21T08:41:28.173Z,20.12
2019-04-21T08:44:44.917Z,20.05
2019-04-21T08:47:39.706Z,20.03
2019-04-21T08:50:47.593Z,20.30
2019-04-21T08:53:56.469Z,20.56
2019-04-21T08:57:14.601Z,20.66
2019-04-21T09:00:20.089Z,20.75
2019-04-21T09:03:49.579Z,20.65
2019-04-21T09:09:57.943Z,20.54
2019-04-21T09:12:59.105Z,20.40
2019-04-21T09:16:03.499Z,20.79
2019-04-21T09:19:19.880Z,21.25
2019-04-21T09:22:20.814Z,21.34
2019-04-21T09:25:33.519Z,21.37
2019-04-21T09:28:25.667Z,21.40
2019-04-21T09:31:28.226Z,21.61
2019-04-21T09:34:33.192Z,21.67
2019-04-21T09:37:40.680Z,21.73
2019-04-21T09:40:42.317Z,21.90
2019-04-21T09:43:47.393Z,21.93
2019-04-21T09:46:54.329Z,22.15
2019-04-21T09:49:56.247Z,22.27
2019-04-21T09:53:12.561Z,22.33
2019-04-21T09:56:11.780Z,22.15
2019-04-21T09:59:20.565Z,21.94
2019-04-21T10:02:32.461Z,21.67
2019-04-21T10:05:25.152Z,21.88
2019-04-21T10:08:29.586Z,22.11
2019-04-21T10:11:33.486Z,22.30
2019-04-21T10:14:38.695Z,22.43
2019-04-21T10:17:47.349Z,22.37
2019-04-21T10:20:51.627Z,22.67
2019-04-21T10:23:55.658Z,23.02
2019-04-21T10:27:01.687Z,23.16
2019-04-21T10:30:06.090Z,23.27
2019-04-21T10:33:10.349Z,23.39
2019-04-21T10:36:15.197Z,23.60
2019-04-21T10:39:19.851Z,23.80
2019-04-21T10:42:23.906Z,23.99
2019-04-21T10:45:28.622Z,24.09
2019-04-21T10:48:34.605Z,23.99
2019-04-21T10:51:39.312Z,23.85
2019-04-21T10:55:06.928Z,24.15
2019-04-21T10:58:07.024Z,23.97
2019-04-21T11:01:14.198Z,24.05
2019-04-21T11:04:31.350Z,24.13
2019-04-21T11:08:03.336Z,24.32
2019-04-21T11:10:54.035Z,24.80
2019-04-21T11:13:58.876Z,25.08
2019-04-21T11:17:04.142Z,25.28
2019-04-21T11:20:08.900Z,25.33
2019-04-21T11:23:14.173Z,25.16
2019-04-21T11:26:18.143Z,25.16
2019-04-21T11:29:23.318Z,25.22
2019-04-21T11:32:27.574Z,25.39
2019-04-21T11:35:32.902Z,25.59
2019-04-21T11:39:06.165Z,25.57
2019-04-21T11:41:57.572Z,25.68
2019-04-21T11:45:01.518Z,25.82
2019-04-21T11:48:18.470Z,25.95
2019-04-21T11:51:22.787Z,25.90
2019-04-21T11:54:26.965Z,25.99
2019-04-21T11:57:37.666Z,25.97
2019-04-21T12:00:37.759Z,26.01
2019-04-21T12:03:42.029Z,26.08
2019-04-21T12:06:48.270Z,26.20
2019-04-21T12:09:53.359Z,26.27
2019-04-21T12:12:57.763Z,26.37
2019-04-21T12:16:03.030Z,26.30
2019-04-21T12:19:07.230Z,26.35
2019-04-21T12:22:21.046Z,25.98
2019-04-21T12:25:19.078Z,25.84
2019-04-21T12:28:23.866Z,26.14
2019-04-21T12:31:37.426Z,26.42
2019-04-21T12:34:41.777Z,26.61
2019-04-21T12:37:46.925Z,26.74
2019-04-21T12:40:50.892Z,26.72
2019-04-21T12:43:55.125Z,26.62
2019-04-21T12:47:01.600Z,26.75
2019-04-21T12:50:06.763Z,27.06
2019-04-21T12:53:13.860Z,27.25
2019-04-21T12:56:17.668Z,27.29
2019-04-21T12:59:21.792Z,27.35
2019-04-21T13:02:25.760Z,27.35
2019-04-21T13:05:29.884Z,27.42
2019-04-21T13:08:45.555Z,27.49
2019-04-21T13:11:39.715Z,27.56
2019-04-21T13:14:44.052Z,27.75
2019-04-21T13:17:48.432Z,27.88
2019-04-21T13:20:52.405Z,27.82
2019-04-21T13:23:56.890Z,27.89
2019-04-21T13:27:03.228Z,27.51
2019-04-21T13:30:08.810Z,27.39
2019-04-21T13:33:13.405Z,27.68
2019-04-21T13:36:18.131Z,28.01
2019-04-21T13:40:09.752Z,28.12
2019-04-21T13:42:58.009Z,28.08
2019-04-21T13:45:59.687Z,28.19
2019-04-21T13:49:03.660Z,28.27
2019-04-21T13:52:08.932Z,28.16
2019-04-21T13:55:13.912Z,27.78
2019-04-21T13:58:17.795Z,27.85
2019-04-21T14:01:23.403Z,28.18
2019-04-21T14:04:27.529Z,28.26
2019-04-21T14:07:32.176Z,28.20
2019-04-21T14:10:37.580Z,28.45
2019-04-21T14:13:42.562Z,28.46
2019-04-21T14:16:47.969Z,28.75
2019-04-21T14:19:53.080Z,28.74
2019-04-21T14:23:08.573Z,28.89
2019-04-21T14:26:03.881Z,28.65
2019-04-21T14:29:08.087Z,28.57
2019-04-21T14:32:11.925Z,28.71
2019-04-21T14:35:16.745Z,28.96
2019-04-21T14:38:20.680Z,28.84
2019-04-21T14:41:26.249Z,28.50
2019-04-21T14:44:31.099Z,28.93
2019-04-21T14:47:44.321Z,29.14
2019-04-21T14:51:11.198Z,29.28
2019-04-21T14:54:33.148Z,29.33
2019-04-21T14:57:37.077Z,29.14
2019-04-21T15:00:56.164Z,28.87
2019-04-21T15:03:59.958Z,28.97
2019-04-21T15:07:05.480Z,29.04
2019-04-21T15:10:16.342Z,29.24
2019-04-21T15:13:15.168Z,29.00
2019-04-21T15:16:20.635Z,29.29
2019-04-21T15:19:24.658Z,29.61
2019-04-21T15:22:28.489Z,29.26
2019-04-21T15:25:32.598Z,29.34
2019-04-21T15:28:37.898Z,29.72
2019-04-21T15:31:44.601Z,29.73
2019-04-21T15:34:47.877Z,29.56
2019-04-21T15:37:51.947Z,29.63
2019-04-21T15:41:00.728Z,29.62
2019-04-21T15:44:03.162Z,29.68
2019-04-21T15:47:08.210Z,29.28
2019-04-21T15:50:17.377Z,29.35
2019-04-21T15:53:19.595Z,29.45
2019-04-21T15:56:28.792Z,29.69
2019-04-21T15:59:52.884Z,29.48
2019-04-21T16:02:56.734Z,28.64
2019-04-21T16:06:01.400Z,28.37
2019-04-21T16:09:14.194Z,28.79
2019-04-21T16:12:15.809Z,28.49
2019-04-21T16:15:20.804Z,28.74
2019-04-21T16:18:25.057Z,28.65
2019-04-21T16:21:29.573Z,28.22
2019-04-21T16:24:33.823Z,28.17
2019-04-21T16:27:39.281Z,28.60
2019-04-21T16:30:44.582Z,28.67
2019-04-21T16:33:49.171Z,28.79
2019-04-21T16:36:56.750Z,28.73
2019-04-21T16:40:01.264Z,28.37
2019-04-21T16:43:05.958Z,28.03
2019-04-21T16:46:10.759Z,27.65
2019-04-21T16:49:15.876Z,27.35
2019-04-21T16:52:23.935Z,27.22
2019-04-21T16:55:33.200Z,27.34
2019-04-21T16:58:43.381Z,27.24
2019-04-21T17:01:48.864Z,26.88
2019-04-21T17:04:54.109Z,26.69
2019-04-21T17:07:58.016Z,26.37
2019-04-21T17:11:10.422Z,26.14
2019-04-21T17:14:30.064Z,25.96
2019-04-21T17:17:37.437Z,25.97
2019-04-21T17:20:34.141Z,25.99
2019-04-21T17:23:27.350Z,25.91
2019-04-21T17:26:34.116Z,25.84
2019-04-21T17:29:36.863Z,25.80
2019-04-21T17:32:46.986Z,25.70
2019-04-21T17:35:46.898Z,25.52
2019-04-21T17:38:52.256Z,25.45
2019-04-21T17:42:11.718Z,25.25
2019-04-21T17:45:03.517Z,25.14
2019-04-21T17:48:11.183Z,25.10
2019-04-21T17:51:32.866Z,24.95
2019-04-21T17:54:47.047Z,24.78
2019-04-21T17:58:05.121Z,24.72
2019-04-21T18:01:18.159Z,24.58
2019-04-21T18:04:18.858Z,24.45
2019-04-21T18:07:27.582Z,24.31
2019-04-21T18:10:33.749Z,24.23
2019-04-21T18:13:22.684Z,24.20
2019-04-21T18:16:31.549Z,24.16
2019-04-21T18:19:34.951Z,24.10
2019-04-21T18:22:55.431Z,23.97
2019-04-21T18:26:07.627Z,23.83
2019-04-21T18:29:05.927Z,23.78
2019-04-21T18:32:10.515Z,23.68
2019-04-21T18:35:24.702Z,23.61
2019-04-21T18:38:59.748Z,23.44
2019-04-21T18:42:10.916Z,23.27
2019-04-21T18:45:45.463Z,23.15
2019-04-21T18:48:36.849Z,23.06
2019-04-21T18:52:02.255Z,22.85
2019-04-21T18:55:09.888Z,22.59
2019-04-21T18:58:03.245Z,22.43
2019-04-21T19:01:12.586Z,22.19
2019-04-21T19:04:19.661Z,22.06
2019-04-21T19:07:37.715Z,21.90
2019-04-21T19:10:47.970Z,21.71
2019-04-21T19:14:27.159Z,21.54
2019-04-21T19:17:56.738Z,21.38
2019-04-21T19:20:25.573Z,21.29
2019-04-21T19:23:41.727Z,21.15
2019-04-21T19:26:46.796Z,20.99
2019-04-21T19:29:42.749Z,20.74
2019-04-21T19:32:45.185Z,20.56
2019-04-21T19:35:35.452Z,20.43
2019-04-21T19:38:48.887Z,20.30
2019-04-21T19:41:59.639Z,20.17
2019-04-21T19:45:05.266Z,20.01
2019-04-21T19:48:13.289Z,19.93
2019-04-21T19:51:17.988Z,19.81
2019-04-21T19:54:19.201Z,19.70
2019-04-21T19:57:14.302Z,19.51
2019-04-21T20:00:19.288Z,19.38
2019-04-21T20:03:24.415Z,19.28
2019-04-21T20:06:44.841Z,19.16
2019-04-21T20:09:50.457Z,19.02
2019-04-21T20:13:02.866Z,18.99
2019-04-21T20:16:07.971Z,19.04
2019-04-21T20:18:57.430Z,19.02
2019-04-21T20:21:58.878Z,18.94
2019-04-21T20:25:08.855Z,18.97
2019-04-21T20:28:15.670Z,19.07
2019-04-21T20:31:34.312Z,19.18
2019-04-21T20:34:38.551Z,19.24
2019-04-21T20:37:44.589Z,19.29
2019-04-21T20:40:41.310Z,19.33
2019-04-21T20:44:02.487Z,19.36
2019-04-21T20:47:02.242Z,19.37
2019-04-21T20:50:03.011Z,19.37
2019-04-21T20:53:17.621Z,19.29
2019-04-21T20:56:13.004Z,19.22
2019-04-21T20:59:19.749Z,19.17
2019-04-21T21:02:36.210Z,19.13
2019-04-21T21:05:35.905Z,19.09
2019-04-21T21:08:46.819Z,19.00
2019-04-21T21:11:56.914Z,18.90
2019-04-21T21:14:52.968Z,18.80
2019-04-21T21:18:06.240Z,18.73
2019-04-21T21:21:09.539Z,18.69
2019-04-21T21:24:15.877Z,18.65
2019-04-21T21:27:19.200Z,18.60
2019-04-21T21:30:22.958Z,18.57
2019-04-21T21:33:45.674Z,18.53
2019-04-21T21:36:43.450Z,18.47
2019-04-21T21:39:53.678Z,18.44
2019-04-21T21:42:37.614Z,18.37
2019-04-21T21:45:45.762Z,18.28
2019-04-21T21:48:58.600Z,18.20
2019-04-21T21:51:59.219Z,18.12
2019-04-21T21:54:58.107Z,18.03
2019-04-21T21:58:04.378Z,17.94
2019-04-21T22:01:13.198Z,17.89
2019-04-21T22:04:24.183Z,17.87
2019-04-21T22:07:26.886Z,17.85
2019-04-21T22:10:29.323Z,17.88
2019-04-21T22:13:46.228Z,17.81
2019-04-21T22:16:50.446Z,17.69
2019-04-21T22:20:22.328Z,17.57
2019-04-21T22:23:01.037Z,17.51
2019-04-21T22:25:57.567Z,17.47
2019-04-21T22:29:01.759Z,17.48
2019-04-21T22:32:10.143Z,17.44
2019-04-21T22:35:26.399Z,17.42
2019-04-21T22:38:31.057Z,17.42
2019-04-21T22:41:33.746Z,17.40
2019-04-21T22:44:30.703Z,17.36
2019-04-21T22:47:39.467Z,17.30
2019-04-21T22:50:42.603Z,17.20
2019-04-21T22:53:50.256Z,17.12
2019-04-21T22:57:02.542Z,17.10
2019-04-21T23:00:03.909Z,17.13
2019-04-21T23:03:10.734Z,17.13
2019-04-21T23:06:19.270Z,17.12
2019-04-21T23:09:19.904Z,17.11
2019-04-21T23:12:28.258Z,17.07
2019-04-21T23:15:39.552Z,17.03
2019-04-21T23:18:49.164Z,17.01
2019-04-21T23:22:01.014Z,17.00
2019-04-21T23:25:09.126Z,17.04
2019-04-21T23:28:11.628Z,16.99
2019-04-21T23:31:18.512Z,16.93
2019-04-21T23:34:06.385Z,16.89
2019-04-21T23:37:17.986Z,17.00
2019-04-21T23:40:20.315Z,16.93
2019-04-21T23:43:26.349Z,16.91
2019-04-21T23:46:34.430Z,16.82
2019-04-21T23:49:46.184Z,16.84
2019-04-21T23:52:41.583Z,16.78
2019-04-21T23:55:45.514Z,16.77
2019-04-21T23:58:54.697Z,16.75
